sensor_id;sensor_type;location;lat;lon;timestamp;temperature;humidity
1055;DHT22;516;51.482;7.120;2024-03-02T00:01:12;22.50;1.00
1055;DHT22;516;51.482;7.120;2024-03-02T00:03:38;22.40;1.00
1055;DHT22;516;51.482;7.120;2024-03-02T00:06:04;22.40;1.00
1055;DHT22;516;51.482;7.120;2024-03-02T00:08:30;22.40;1.00
1055;DHT22;516;51.482;7.120;2024-03-02T00:11:01;22.40;1.00
1055;DHT22;516;51.482;7.120;2024-03-02T00:13:29;22.40;1.00
1055;DHT22;516;51.482;7.120;2024-03-02T00:15:56;22.40;1.00
1055;DHT22;516;51.482;7.120;2024-03-02T00:18:30;22.30;1.00
1055;DHT22;516;51.482;7.120;2024-03-02T00:20:57;22.30;1.00
1055;DHT22;516;51.482;7.120;2024-03-02T00:23:23;22.30;1.00
1055;DHT22;516;51.482;7.120;2024-03-02T00:25:50;22.30;1.00
1055;DHT22;516;51.482;7.120;2024-03-02T00:28:24;22.30;1.00
1055;DHT22;516;51.482;7.120;2024-03-02T00:33:42;22.30;1.00
1055;DHT22;516;51.482;7.120;2024-03-02T00:36:09;22.30;1.00
1055;DHT22;516;51.482;7.120;2024-03-02T00:38:49;22.30;1.00
1055;DHT22;516;51.482;7.120;2024-03-02T00:41:19;22.30;1.00
1055;DHT22;516;51.482;7.120;2024-03-02T00:43:50;22.30;1.00
1055;DHT22;516;51.482;7.120;2024-03-02T00:46:20;22.20;1.00
1055;DHT22;516;51.482;7.120;2024-03-02T00:48:57;22.30;1.00
1055;DHT22;516;51.482;7.120;2024-03-02T00:51:26;22.30;1.00
1055;DHT22;516;51.482;7.120;2024-03-02T00:53:54;22.20;1.00
1055;DHT22;516;51.482;7.120;2024-03-02T00:56:22;22.30;1.00
1055;DHT22;516;51.482;7.120;2024-03-02T00:58:49;22.30;1.00
1055;DHT22;516;51.482;7.120;2024-03-02T01:01:15;22.20;1.00
1055;DHT22;516;51.482;7.120;2024-03-02T01:03:41;22.30;1.00
1055;DHT22;516;51.482;7.120;2024-03-02T01:06:07;22.20;1.00
1055;DHT22;516;51.482;7.120;2024-03-02T01:08:34;22.20;1.00
1055;DHT22;516;51.482;7.120;2024-03-02T01:11:01;22.20;1.00
1055;DHT22;516;51.482;7.120;2024-03-02T01:13:26;22.20;1.00
1055;DHT22;516;51.482;7.120;2024-03-02T01:15:53;22.20;1.00
1055;DHT22;516;51.482;7.120;2024-03-02T01:18:19;22.20;1.00
1055;DHT22;516;51.482;7.120;2024-03-02T01:20:44;22.20;1.00
1055;DHT22;516;51.482;7.120;2024-03-02T01:23:11;22.20;1.00
1055;DHT22;516;51.482;7.120;2024-03-02T01:25:37;22.20;1.00
1055;DHT22;516;51.482;7.120;2024-03-02T01:28:03;22.20;1.00
1055;DHT22;516;51.482;7.120;2024-03-02T01:30:29;22.20;1.00
1055;DHT22;516;51.482;7.120;2024-03-02T01:32:54;22.20;1.00
1055;DHT22;516;51.482;7.120;2024-03-02T01:35:20;22.20;1.00
1055;DHT22;516;51.482;7.120;2024-03-02T01:37:45;22.20;1.00
1055;DHT22;516;51.482;7.120;2024-03-02T01:40:11;22.20;1.00
1055;DHT22;516;51.482;7.120;2024-03-02T01:42:38;22.20;1.00
1055;DHT22;516;51.482;7.120;2024-03-02T01:45:08;22.20;1.00
1055;DHT22;516;51.482;7.120;2024-03-02T01:47:34;22.20;1.00
1055;DHT22;516;51.482;7.120;2024-03-02T01:50:00;22.20;1.00
1055;DHT22;516;51.482;7.120;2024-03-02T01:52:27;22.20;1.00
1055;DHT22;516;51.482;7.120;2024-03-02T01:54:53;22.20;1.00
1055;DHT22;516;51.482;7.120;2024-03-02T01:57:19;22.20;1.00
1055;DHT22;516;51.482;7.120;2024-03-02T01:59:45;22.20;1.00
1055;DHT22;516;51.482;7.120;2024-03-02T02:02:13;22.20;1.00
1055;DHT22;516;51.482;7.120;2024-03-02T02:04:39;22.20;1.00
1055;DHT22;516;51.482;7.120;2024-03-02T02:07:05;22.20;1.00
1055;DHT22;516;51.482;7.120;2024-03-02T02:09:32;22.10;1.00
1055;DHT22;516;51.482;7.120;2024-03-02T02:11:58;22.10;1.00
1055;DHT22;516;51.482;7.120;2024-03-02T02:14:24;22.10;1.00
1055;DHT22;516;51.482;7.120;2024-03-02T02:16:49;22.10;1.00
1055;DHT22;516;51.482;7.120;2024-03-02T02:19:15;22.10;1.00
1055;DHT22;516;51.482;7.120;2024-03-02T02:21:44;22.10;1.00
1055;DHT22;516;51.482;7.120;2024-03-02T02:24:10;22.10;1.00
1055;DHT22;516;51.482;7.120;2024-03-02T02:26:36;22.10;1.00
1055;DHT22;516;51.482;7.120;2024-03-02T02:29:02;22.10;1.00
1055;DHT22;516;51.482;7.120;2024-03-02T02:31:39;22.10;1.00
1055;DHT22;516;51.482;7.120;2024-03-02T02:34:06;22.10;1.00
1055;DHT22;516;51.482;7.120;2024-03-02T02:36:34;22.20;1.00
1055;DHT22;516;51.482;7.120;2024-03-02T02:39:03;22.20;1.00
1055;DHT22;516;51.482;7.120;2024-03-02T02:41:30;22.10;1.00
1055;DHT22;516;51.482;7.120;2024-03-02T02:43:56;22.20;1.00
1055;DHT22;516;51.482;7.120;2024-03-02T02:46:22;22.10;1.00
1055;DHT22;516;51.482;7.120;2024-03-02T02:48:48;22.10;1.00
1055;DHT22;516;51.482;7.120;2024-03-02T02:51:13;22.10;1.00
1055;DHT22;516;51.482;7.120;2024-03-02T02:53:39;22.10;1.00
1055;DHT22;516;51.482;7.120;2024-03-02T02:56:06;22.10;1.00
1055;DHT22;516;51.482;7.120;2024-03-02T02:58:32;22.10;1.00
1055;DHT22;516;51.482;7.120;2024-03-02T03:00:58;22.10;1.00
1055;DHT22;516;51.482;7.120;2024-03-02T03:03:23;22.10;1.00
1055;DHT22;516;51.482;7.120;2024-03-02T03:05:49;22.10;1.00
1055;DHT22;516;51.482;7.120;2024-03-02T03:08:15;22.10;1.00
1055;DHT22;516;51.482;7.120;2024-03-02T03:10:43;22.10;1.00
1055;DHT22;516;51.482;7.120;2024-03-02T03:13:09;22.10;1.00
1055;DHT22;516;51.482;7.120;2024-03-02T03:15:36;22.10;1.00
1055;DHT22;516;51.482;7.120;2024-03-02T03:18:04;22.10;1.00
1055;DHT22;516;51.482;7.120;2024-03-02T03:20:30;22.10;1.00
1055;DHT22;516;51.482;7.120;2024-03-02T03:23:00;22.10;1.00
1055;DHT22;516;51.482;7.120;2024-03-02T03:25:26;22.10;1.00
1055;DHT22;516;51.482;7.120;2024-03-02T03:27:51;22.10;1.00
1055;DHT22;516;51.482;7.120;2024-03-02T03:30:18;22.10;1.00
1055;DHT22;516;51.482;7.120;2024-03-02T03:32:44;22.10;1.00
1055;DHT22;516;51.482;7.120;2024-03-02T03:35:09;22.10;1.00
1055;DHT22;516;51.482;7.120;2024-03-02T03:37:35;22.10;1.00
1055;DHT22;516;51.482;7.120;2024-03-02T03:40:05;22.10;1.00
1055;DHT22;516;51.482;7.120;2024-03-02T03:42:38;22.00;1.00
1055;DHT22;516;51.482;7.120;2024-03-02T03:45:05;22.10;1.00
1055;DHT22;516;51.482;7.120;2024-03-02T03:47:34;22.00;1.00
1055;DHT22;516;51.482;7.120;2024-03-02T03:50:00;22.00;1.00
1055;DHT22;516;51.482;7.120;2024-03-02T03:52:25;22.00;1.00
1055;DHT22;516;51.482;7.120;2024-03-02T03:54:51;22.00;1.00
1055;DHT22;516;51.482;7.120;2024-03-02T03:57:17;22.00;1.00
1055;DHT22;516;51.482;7.120;2024-03-02T03:59:43;22.00;1.00
1055;DHT22;516;51.482;7.120;2024-03-02T04:02:10;22.00;1.00
1055;DHT22;516;51.482;7.120;2024-03-02T04:04:37;22.00;1.00
1055;DHT22;516;51.482;7.120;2024-03-02T04:07:02;22.00;1.00
1055;DHT22;516;51.482;7.120;2024-03-02T04:09:28;22.00;1.00
1055;DHT22;516;51.482;7.120;2024-03-02T04:11:54;22.00;1.00
1055;DHT22;516;51.482;7.120;2024-03-02T04:14:19;22.00;1.00
1055;DHT22;516;51.482;7.120;2024-03-02T04:16:45;22.00;1.00
1055;DHT22;516;51.482;7.120;2024-03-02T04:19:11;22.00;1.00
1055;DHT22;516;51.482;7.120;2024-03-02T04:24:47;22.00;1.00
1055;DHT22;516;51.482;7.120;2024-03-02T04:27:13;22.00;1.00
1055;DHT22;516;51.482;7.120;2024-03-02T04:29:39;22.00;1.00
1055;DHT22;516;51.482;7.120;2024-03-02T04:32:05;22.00;1.00
1055;DHT22;516;51.482;7.120;2024-03-02T04:34:31;22.00;1.00
1055;DHT22;516;51.482;7.120;2024-03-02T04:36:56;21.90;1.00
1055;DHT22;516;51.482;7.120;2024-03-02T04:39:22;21.90;1.00
1055;DHT22;516;51.482;7.120;2024-03-02T04:41:47;21.90;1.00
1055;DHT22;516;51.482;7.120;2024-03-02T04:44:13;21.90;1.00
1055;DHT22;516;51.482;7.120;2024-03-02T04:46:39;21.90;1.00
1055;DHT22;516;51.482;7.120;2024-03-02T04:49:04;21.90;1.00
1055;DHT22;516;51.482;7.120;2024-03-02T04:51:30;21.90;1.00
1055;DHT22;516;51.482;7.120;2024-03-02T04:53:56;21.90;1.00
1055;DHT22;516;51.482;7.120;2024-03-02T04:56:21;21.90;1.00
1055;DHT22;516;51.482;7.120;2024-03-02T04:58:56;21.90;1.00
1055;DHT22;516;51.482;7.120;2024-03-02T05:01:22;21.90;1.00
1055;DHT22;516;51.482;7.120;2024-03-02T05:03:48;21.90;1.00
1055;DHT22;516;51.482;7.120;2024-03-02T05:06:13;21.90;1.00
1055;DHT22;516;51.482;7.120;2024-03-02T05:08:39;22.00;1.00
1055;DHT22;516;51.482;7.120;2024-03-02T05:11:05;22.00;1.00
1055;DHT22;516;51.482;7.120;2024-03-02T05:13:49;22.00;1.00
1055;DHT22;516;51.482;7.120;2024-03-02T05:16:15;22.00;1.00
1055;DHT22;516;51.482;7.120;2024-03-02T05:18:40;22.00;1.00
1055;DHT22;516;51.482;7.120;2024-03-02T05:21:06;22.00;1.00
1055;DHT22;516;51.482;7.120;2024-03-02T05:23:32;22.00;1.00
1055;DHT22;516;51.482;7.120;2024-03-02T05:25:57;22.00;1.00
1055;DHT22;516;51.482;7.120;2024-03-02T05:28:23;22.00;1.00
1055;DHT22;516;51.482;7.120;2024-03-02T05:30:49;22.00;1.00
1055;DHT22;516;51.482;7.120;2024-03-02T05:33:16;22.00;1.00
1055;DHT22;516;51.482;7.120;2024-03-02T05:35:41;22.00;1.00
1055;DHT22;516;51.482;7.120;2024-03-02T05:38:09;22.00;1.00
1055;DHT22;516;51.482;7.120;2024-03-02T05:40:34;22.00;1.00
1055;DHT22;516;51.482;7.120;2024-03-02T05:43:00;22.00;1.00
1055;DHT22;516;51.482;7.120;2024-03-02T05:45:26;22.00;1.00
1055;DHT22;516;51.482;7.120;2024-03-02T05:47:51;22.00;1.00
1055;DHT22;516;51.482;7.120;2024-03-02T05:50:17;22.00;1.00
1055;DHT22;516;51.482;7.120;2024-03-02T05:52:45;22.00;1.00
1055;DHT22;516;51.482;7.120;2024-03-02T05:55:10;22.00;1.00
1055;DHT22;516;51.482;7.120;2024-03-02T05:57:36;22.00;1.00
1055;DHT22;516;51.482;7.120;2024-03-02T06:00:20;22.00;1.00
1055;DHT22;516;51.482;7.120;2024-03-02T06:02:47;22.10;1.00
1055;DHT22;516;51.482;7.120;2024-03-02T06:05:13;22.00;1.00
1055;DHT22;516;51.482;7.120;2024-03-02T06:08:13;22.10;1.00
1055;DHT22;516;51.482;7.120;2024-03-02T06:10:39;22.10;1.00
1055;DHT22;516;51.482;7.120;2024-03-02T06:13:05;22.10;1.00
1055;DHT22;516;51.482;7.120;2024-03-02T06:15:31;22.10;1.00
1055;DHT22;516;51.482;7.120;2024-03-02T06:17:56;22.10;1.00
1055;DHT22;516;51.482;7.120;2024-03-02T06:20:22;22.10;1.00
1055;DHT22;516;51.482;7.120;2024-03-02T06:22:48;22.10;1.00
1055;DHT22;516;51.482;7.120;2024-03-02T06:25:14;22.10;1.00
1055;DHT22;516;51.482;7.120;2024-03-02T06:27:39;22.10;1.00
1055;DHT22;516;51.482;7.120;2024-03-02T06:30:06;22.10;1.00
1055;DHT22;516;51.482;7.120;2024-03-02T06:32:31;22.10;1.00
1055;DHT22;516;51.482;7.120;2024-03-02T06:34:57;22.20;1.00
1055;DHT22;516;51.482;7.120;2024-03-02T06:37:23;22.20;1.00
1055;DHT22;516;51.482;7.120;2024-03-02T06:39:48;22.20;1.00
1055;DHT22;516;51.482;7.120;2024-03-02T06:42:14;22.20;1.00
1055;DHT22;516;51.482;7.120;2024-03-02T06:44:40;22.20;1.00
1055;DHT22;516;51.482;7.120;2024-03-02T06:47:05;22.20;1.00
1055;DHT22;516;51.482;7.120;2024-03-02T06:49:31;22.20;1.00
1055;DHT22;516;51.482;7.120;2024-03-02T06:51:57;22.20;1.00
1055;DHT22;516;51.482;7.120;2024-03-02T06:54:22;22.30;1.00
1055;DHT22;516;51.482;7.120;2024-03-02T06:56:48;22.40;1.00
1055;DHT22;516;51.482;7.120;2024-03-02T06:59:14;22.80;1.00
1055;DHT22;516;51.482;7.120;2024-03-02T07:01:39;22.80;1.00
1055;DHT22;516;51.482;7.120;2024-03-02T07:04:05;22.70;1.00
1055;DHT22;516;51.482;7.120;2024-03-02T07:06:32;22.60;1.00
1055;DHT22;516;51.482;7.120;2024-03-02T07:08:57;22.50;1.00
1055;DHT22;516;51.482;7.120;2024-03-02T07:11:23;22.50;1.00
1055;DHT22;516;51.482;7.120;2024-03-02T07:13:49;22.50;1.00
1055;DHT22;516;51.482;7.120;2024-03-02T07:16:14;22.50;1.00
1055;DHT22;516;51.482;7.120;2024-03-02T07:18:58;22.50;1.00
1055;DHT22;516;51.482;7.120;2024-03-02T07:21:24;22.50;1.00
1055;DHT22;516;51.482;7.120;2024-03-02T07:23:50;22.80;1.00
1055;DHT22;516;51.482;7.120;2024-03-02T07:26:16;23.00;1.00
1055;DHT22;516;51.482;7.120;2024-03-02T07:28:45;23.10;1.00
1055;DHT22;516;51.482;7.120;2024-03-02T07:31:11;23.20;1.00
1055;DHT22;516;51.482;7.120;2024-03-02T07:33:37;23.40;1.00
1055;DHT22;516;51.482;7.120;2024-03-02T07:36:02;23.20;1.00
1055;DHT22;516;51.482;7.120;2024-03-02T07:38:28;23.00;1.00
1055;DHT22;516;51.482;7.120;2024-03-02T07:40:55;22.80;1.00
1055;DHT22;516;51.482;7.120;2024-03-02T07:43:21;22.80;1.00
1055;DHT22;516;51.482;7.120;2024-03-02T07:45:47;22.70;1.00
1055;DHT22;516;51.482;7.120;2024-03-02T07:48:14;22.70;1.00
1055;DHT22;516;51.482;7.120;2024-03-02T07:50:39;22.80;1.00
1055;DHT22;516;51.482;7.120;2024-03-02T07:53:05;22.80;1.00
1055;DHT22;516;51.482;7.120;2024-03-02T07:55:31;23.00;1.00
1055;DHT22;516;51.482;7.120;2024-03-02T07:57:57;23.20;1.00
1055;DHT22;516;51.482;7.120;2024-03-02T08:00:23;23.40;1.00
1055;DHT22;516;51.482;7.120;2024-03-02T08:02:50;23.60;1.00
1055;DHT22;516;51.482;7.120;2024-03-02T08:05:16;23.70;1.00
1055;DHT22;516;51.482;7.120;2024-03-02T08:07:44;23.50;1.00
1055;DHT22;516;51.482;7.120;2024-03-02T08:10:10;23.40;1.00
1055;DHT22;516;51.482;7.120;2024-03-02T08:12:36;23.20;1.00
1055;DHT22;516;51.482;7.120;2024-03-02T08:15:02;23.20;1.00
1055;DHT22;516;51.482;7.120;2024-03-02T08:17:28;23.30;1.00
1055;DHT22;516;51.482;7.120;2024-03-02T08:19:54;23.20;1.00
1055;DHT22;516;51.482;7.120;2024-03-02T08:22:20;23.20;1.00
1055;DHT22;516;51.482;7.120;2024-03-02T08:24:45;23.20;1.00
1055;DHT22;516;51.482;7.120;2024-03-02T08:27:11;23.10;1.00
1055;DHT22;516;51.482;7.120;2024-03-02T08:29:37;23.00;1.00
1055;DHT22;516;51.482;7.120;2024-03-02T08:32:04;23.00;1.00
1055;DHT22;516;51.482;7.120;2024-03-02T08:34:30;22.90;1.00
1055;DHT22;516;51.482;7.120;2024-03-02T08:36:56;22.80;1.00
1055;DHT22;516;51.482;7.120;2024-03-02T08:39:21;22.80;1.00
1055;DHT22;516;51.482;7.120;2024-03-02T08:41:47;22.70;1.00
1055;DHT22;516;51.482;7.120;2024-03-02T08:44:14;22.80;1.00
1055;DHT22;516;51.482;7.120;2024-03-02T08:46:40;22.80;1.00
1055;DHT22;516;51.482;7.120;2024-03-02T08:49:06;22.80;1.00
1055;DHT22;516;51.482;7.120;2024-03-02T08:51:32;22.80;1.00
1055;DHT22;516;51.482;7.120;2024-03-02T08:53:58;22.80;1.00
1055;DHT22;516;51.482;7.120;2024-03-02T08:56:24;22.80;1.00
1055;DHT22;516;51.482;7.120;2024-03-02T08:58:51;22.80;1.00
1055;DHT22;516;51.482;7.120;2024-03-02T09:01:18;22.90;1.00
1055;DHT22;516;51.482;7.120;2024-03-02T09:03:45;22.90;1.00
1055;DHT22;516;51.482;7.120;2024-03-02T09:06:13;23.00;1.00
1055;DHT22;516;51.482;7.120;2024-03-02T09:08:39;23.00;1.00
1055;DHT22;516;51.482;7.120;2024-03-02T09:11:08;23.00;1.00
1055;DHT22;516;51.482;7.120;2024-03-02T09:13:35;23.00;1.00
1055;DHT22;516;51.482;7.120;2024-03-02T09:16:01;23.00;1.00
1055;DHT22;516;51.482;7.120;2024-03-02T09:18:27;23.10;1.00
1055;DHT22;516;51.482;7.120;2024-03-02T09:20:52;23.10;1.00
1055;DHT22;516;51.482;7.120;2024-03-02T09:23:18;23.20;1.00
1055;DHT22;516;51.482;7.120;2024-03-02T09:25:44;23.30;1.00
1055;DHT22;516;51.482;7.120;2024-03-02T09:28:10;23.30;1.00
1055;DHT22;516;51.482;7.120;2024-03-02T09:30:36;23.40;1.00
1055;DHT22;516;51.482;7.120;2024-03-02T09:33:01;23.40;1.00
1055;DHT22;516;51.482;7.120;2024-03-02T09:35:27;23.40;1.00
1055;DHT22;516;51.482;7.120;2024-03-02T09:37:53;23.40;1.00
1055;DHT22;516;51.482;7.120;2024-03-02T09:40:22;23.50;1.00
1055;DHT22;516;51.482;7.120;2024-03-02T09:42:48;23.40;1.00
1055;DHT22;516;51.482;7.120;2024-03-02T09:45:23;23.50;1.00
1055;DHT22;516;51.482;7.120;2024-03-02T09:47:49;23.50;1.00
1055;DHT22;516;51.482;7.120;2024-03-02T09:50:15;23.50;1.00
1055;DHT22;516;51.482;7.120;2024-03-02T09:52:42;23.60;1.00
1055;DHT22;516;51.482;7.120;2024-03-02T09:55:09;23.60;1.00
1055;DHT22;516;51.482;7.120;2024-03-02T09:57:35;23.60;1.00
1055;DHT22;516;51.482;7.120;2024-03-02T10:00:00;23.80;1.00
1055;DHT22;516;51.482;7.120;2024-03-02T10:02:27;24.00;1.00
1055;DHT22;516;51.482;7.120;2024-03-02T10:04:53;24.20;1.00
1055;DHT22;516;51.482;7.120;2024-03-02T10:07:19;24.30;1.00
1055;DHT22;516;51.482;7.120;2024-03-02T10:09:48;24.10;1.00
1055;DHT22;516;51.482;7.120;2024-03-02T10:12:17;24.00;1.00
1055;DHT22;516;51.482;7.120;2024-03-02T10:14:44;23.80;1.00
1055;DHT22;516;51.482;7.120;2024-03-02T10:17:12;23.70;1.00
1055;DHT22;516;51.482;7.120;2024-03-02T10:19:38;22.90;1.00
1055;DHT22;516;51.482;7.120;2024-03-02T10:22:08;22.30;1.00
1055;DHT22;516;51.482;7.120;2024-03-02T10:24:41;22.60;1.00
1055;DHT22;516;51.482;7.120;2024-03-02T10:27:17;22.80;1.00
1055;DHT22;516;51.482;7.120;2024-03-02T10:29:46;23.00;1.00
1055;DHT22;516;51.482;7.120;2024-03-02T10:32:12;23.40;1.00
1055;DHT22;516;51.482;7.120;2024-03-02T10:34:42;23.50;1.00
1055;DHT22;516;51.482;7.120;2024-03-02T10:37:08;23.70;1.00
1055;DHT22;516;51.482;7.120;2024-03-02T10:39:37;23.90;1.00
1055;DHT22;516;51.482;7.120;2024-03-02T10:42:06;24.00;1.00
1055;DHT22;516;51.482;7.120;2024-03-02T10:44:32;24.20;1.00
1055;DHT22;516;51.482;7.120;2024-03-02T10:47:03;24.20;1.00
1055;DHT22;516;51.482;7.120;2024-03-02T10:49:31;24.10;1.00
1055;DHT22;516;51.482;7.120;2024-03-02T10:52:00;23.50;1.00
1055;DHT22;516;51.482;7.120;2024-03-02T10:54:26;23.20;1.00
1055;DHT22;516;51.482;7.120;2024-03-02T10:56:53;22.80;1.00
1055;DHT22;516;51.482;7.120;2024-03-02T10:59:36;22.50;1.00
1055;DHT22;516;51.482;7.120;2024-03-02T11:02:04;22.40;1.00
1055;DHT22;516;51.482;7.120;2024-03-02T11:04:32;22.50;1.00
1055;DHT22;516;51.482;7.120;2024-03-02T11:07:12;22.40;1.00
1055;DHT22;516;51.482;7.120;2024-03-02T11:09:54;22.30;1.00
1055;DHT22;516;51.482;7.120;2024-03-02T11:12:23;22.40;1.00
1055;DHT22;516;51.482;7.120;2024-03-02T11:14:54;22.30;1.00
1055;DHT22;516;51.482;7.120;2024-03-02T11:17:21;22.40;1.00
1055;DHT22;516;51.482;7.120;2024-03-02T11:19:47;22.50;1.00
1055;DHT22;516;51.482;7.120;2024-03-02T11:22:15;22.50;1.00
1055;DHT22;516;51.482;7.120;2024-03-02T11:24:51;22.60;1.00
1055;DHT22;516;51.482;7.120;2024-03-02T11:32:58;22.30;1.00
1055;DHT22;516;51.482;7.120;2024-03-02T11:35:27;22.40;1.00
1055;DHT22;516;51.482;7.120;2024-03-02T11:37:56;22.30;1.00
1055;DHT22;516;51.482;7.120;2024-03-02T11:40:30;22.40;1.00
1055;DHT22;516;51.482;7.120;2024-03-02T11:43:05;22.60;1.00
1055;DHT22;516;51.482;7.120;2024-03-02T11:45:31;22.20;1.00
1055;DHT22;516;51.482;7.120;2024-03-02T11:47:59;21.90;1.00
1055;DHT22;516;51.482;7.120;2024-03-02T11:50:34;22.00;1.00
1055;DHT22;516;51.482;7.120;2024-03-02T11:53:01;22.00;1.00
1055;DHT22;516;51.482;7.120;2024-03-02T11:55:26;22.00;1.00
1055;DHT22;516;51.482;7.120;2024-03-02T11:57:53;22.00;1.00
1055;DHT22;516;51.482;7.120;2024-03-02T12:00:19;21.70;1.00
1055;DHT22;516;51.482;7.120;2024-03-02T12:05:27;21.90;1.00
1055;DHT22;516;51.482;7.120;2024-03-02T12:08:04;22.10;1.00
1055;DHT22;516;51.482;7.120;2024-03-02T12:10:31;22.10;1.00
1055;DHT22;516;51.482;7.120;2024-03-02T12:15:40;21.80;1.00
1055;DHT22;516;51.482;7.120;2024-03-02T12:18:06;21.70;1.00
1055;DHT22;516;51.482;7.120;2024-03-02T12:20:33;21.40;1.00
1055;DHT22;516;51.482;7.120;2024-03-02T12:23:01;21.10;1.00
1055;DHT22;516;51.482;7.120;2024-03-02T12:25:28;21.00;1.00
1055;DHT22;516;51.482;7.120;2024-03-02T12:27:56;21.10;1.00
1055;DHT22;516;51.482;7.120;2024-03-02T12:30:23;21.30;1.00
1055;DHT22;516;51.482;7.120;2024-03-02T12:32:51;21.40;1.00
1055;DHT22;516;51.482;7.120;2024-03-02T12:35:18;21.50;1.00
1055;DHT22;516;51.482;7.120;2024-03-02T12:37:45;21.40;1.00
1055;DHT22;516;51.482;7.120;2024-03-02T12:40:12;21.10;1.00
1055;DHT22;516;51.482;7.120;2024-03-02T12:42:38;21.10;1.00
1055;DHT22;516;51.482;7.120;2024-03-02T12:45:06;21.20;1.00
1055;DHT22;516;51.482;7.120;2024-03-02T12:47:33;21.20;1.00
1055;DHT22;516;51.482;7.120;2024-03-02T12:49:59;20.80;1.00
1055;DHT22;516;51.482;7.120;2024-03-02T12:52:25;20.80;1.00
1055;DHT22;516;51.482;7.120;2024-03-02T12:54:51;20.90;1.00
1055;DHT22;516;51.482;7.120;2024-03-02T12:57:18;20.80;1.00
1055;DHT22;516;51.482;7.120;2024-03-02T12:59:47;20.80;1.00
1055;DHT22;516;51.482;7.120;2024-03-02T13:02:19;20.90;1.00
1055;DHT22;516;51.482;7.120;2024-03-02T13:04:52;20.90;1.00
1055;DHT22;516;51.482;7.120;2024-03-02T13:07:20;20.70;1.00
1055;DHT22;516;51.482;7.120;2024-03-02T13:09:48;20.80;1.00
1055;DHT22;516;51.482;7.120;2024-03-02T13:12:19;20.90;1.00
1055;DHT22;516;51.482;7.120;2024-03-02T13:14:47;20.80;1.00
1055;DHT22;516;51.482;7.120;2024-03-02T13:17:13;20.80;1.00
1055;DHT22;516;51.482;7.120;2024-03-02T13:19:50;20.80;1.00
1055;DHT22;516;51.482;7.120;2024-03-02T13:22:17;20.80;1.00
1055;DHT22;516;51.482;7.120;2024-03-02T13:24:42;20.70;1.00
1055;DHT22;516;51.482;7.120;2024-03-02T13:27:08;20.60;1.00
1055;DHT22;516;51.482;7.120;2024-03-02T13:29:34;20.60;1.00
1055;DHT22;516;51.482;7.120;2024-03-02T13:32:00;20.40;1.00
1055;DHT22;516;51.482;7.120;2024-03-02T13:34:25;20.30;1.00
1055;DHT22;516;51.482;7.120;2024-03-02T13:36:51;20.30;1.00
1055;DHT22;516;51.482;7.120;2024-03-02T13:39:16;20.30;1.00
1055;DHT22;516;51.482;7.120;2024-03-02T13:41:42;20.30;1.00
1055;DHT22;516;51.482;7.120;2024-03-02T13:44:17;20.30;1.00
1055;DHT22;516;51.482;7.120;2024-03-02T13:46:43;20.60;1.00
1055;DHT22;516;51.482;7.120;2024-03-02T13:49:11;21.00;1.00
1055;DHT22;516;51.482;7.120;2024-03-02T13:51:37;21.20;1.00
1055;DHT22;516;51.482;7.120;2024-03-02T13:54:03;21.40;1.00
1055;DHT22;516;51.482;7.120;2024-03-02T13:56:29;21.50;1.00
1055;DHT22;516;51.482;7.120;2024-03-02T13:58:55;21.70;1.00
1055;DHT22;516;51.482;7.120;2024-03-02T14:01:21;21.80;1.00
1055;DHT22;516;51.482;7.120;2024-03-02T14:03:47;21.90;1.00
1055;DHT22;516;51.482;7.120;2024-03-02T14:06:12;22.00;1.00
1055;DHT22;516;51.482;7.120;2024-03-02T14:08:39;22.00;1.00
1055;DHT22;516;51.482;7.120;2024-03-02T14:11:04;22.00;1.00
1055;DHT22;516;51.482;7.120;2024-03-02T14:13:30;22.10;1.00
1055;DHT22;516;51.482;7.120;2024-03-02T14:15:56;22.10;1.00
1055;DHT22;516;51.482;7.120;2024-03-02T14:18:23;22.20;1.00
1055;DHT22;516;51.482;7.120;2024-03-02T14:20:49;22.20;1.00
1055;DHT22;516;51.482;7.120;2024-03-02T14:23:18;22.20;1.00
1055;DHT22;516;51.482;7.120;2024-03-02T14:25:45;22.20;1.00
1055;DHT22;516;51.482;7.120;2024-03-02T14:28:10;22.20;1.00
1055;DHT22;516;51.482;7.120;2024-03-02T14:30:37;22.20;1.00
1055;DHT22;516;51.482;7.120;2024-03-02T14:33:03;22.20;1.00
1055;DHT22;516;51.482;7.120;2024-03-02T14:35:28;22.30;1.00
1055;DHT22;516;51.482;7.120;2024-03-02T14:37:54;22.00;1.00
1055;DHT22;516;51.482;7.120;2024-03-02T14:40:21;21.70;1.00
1055;DHT22;516;51.482;7.120;2024-03-02T14:42:47;21.40;1.00
1055;DHT22;516;51.482;7.120;2024-03-02T14:45:14;21.30;1.00
1055;DHT22;516;51.482;7.120;2024-03-02T14:47:40;21.30;1.00
1055;DHT22;516;51.482;7.120;2024-03-02T14:50:06;21.30;1.00
1055;DHT22;516;51.482;7.120;2024-03-02T14:52:32;21.40;1.00
1055;DHT22;516;51.482;7.120;2024-03-02T14:54:58;21.50;1.00
1055;DHT22;516;51.482;7.120;2024-03-02T14:57:24;21.50;1.00
1055;DHT22;516;51.482;7.120;2024-03-02T14:59:49;21.50;1.00
1055;DHT22;516;51.482;7.120;2024-03-02T15:02:15;21.60;1.00
1055;DHT22;516;51.482;7.120;2024-03-02T15:04:41;21.60;1.00
1055;DHT22;516;51.482;7.120;2024-03-02T15:07:06;21.70;1.00
1055;DHT22;516;51.482;7.120;2024-03-02T15:09:32;21.70;1.00
1055;DHT22;516;51.482;7.120;2024-03-02T15:12:00;21.70;1.00
1055;DHT22;516;51.482;7.120;2024-03-02T15:14:26;21.80;1.00
1055;DHT22;516;51.482;7.120;2024-03-02T15:16:51;21.80;1.00
1055;DHT22;516;51.482;7.120;2024-03-02T15:19:17;21.90;1.00
1055;DHT22;516;51.482;7.120;2024-03-02T15:21:43;21.90;1.00
1055;DHT22;516;51.482;7.120;2024-03-02T15:24:08;21.90;1.00
1055;DHT22;516;51.482;7.120;2024-03-02T15:26:34;21.90;1.00
1055;DHT22;516;51.482;7.120;2024-03-02T15:29:00;21.30;1.00
1055;DHT22;516;51.482;7.120;2024-03-02T15:31:25;20.80;1.00
1055;DHT22;516;51.482;7.120;2024-03-02T15:33:51;20.40;1.00
1055;DHT22;516;51.482;7.120;2024-03-02T15:36:18;20.30;1.00
1055;DHT22;516;51.482;7.120;2024-03-02T15:38:44;20.10;1.00
1055;DHT22;516;51.482;7.120;2024-03-02T15:41:10;19.80;1.00
1055;DHT22;516;51.482;7.120;2024-03-02T15:43:35;20.20;1.00
1055;DHT22;516;51.482;7.120;2024-03-02T15:46:04;20.60;1.00
1055;DHT22;516;51.482;7.120;2024-03-02T15:48:30;20.50;1.00
1055;DHT22;516;51.482;7.120;2024-03-02T15:50:55;20.60;1.00
1055;DHT22;516;51.482;7.120;2024-03-02T15:53:22;20.90;1.00
1055;DHT22;516;51.482;7.120;2024-03-02T15:55:47;21.10;1.00
1055;DHT22;516;51.482;7.120;2024-03-02T15:58:13;21.20;1.00
1055;DHT22;516;51.482;7.120;2024-03-02T16:00:39;21.30;1.00
1055;DHT22;516;51.482;7.120;2024-03-02T16:03:05;21.50;1.00
1055;DHT22;516;51.482;7.120;2024-03-02T16:05:30;21.60;1.00
1055;DHT22;516;51.482;7.120;2024-03-02T16:07:56;22.20;1.00
1055;DHT22;516;51.482;7.120;2024-03-02T16:10:22;22.50;1.00
1055;DHT22;516;51.482;7.120;2024-03-02T16:12:48;22.60;1.00
1055;DHT22;516;51.482;7.120;2024-03-02T16:15:14;22.70;1.00
1055;DHT22;516;51.482;7.120;2024-03-02T16:17:39;22.80;1.00
1055;DHT22;516;51.482;7.120;2024-03-02T16:20:06;22.90;1.00
1055;DHT22;516;51.482;7.120;2024-03-02T16:22:33;23.00;1.00
1055;DHT22;516;51.482;7.120;2024-03-02T16:24:58;23.10;1.00
1055;DHT22;516;51.482;7.120;2024-03-02T16:27:24;23.20;1.00
1055;DHT22;516;51.482;7.120;2024-03-02T16:29:50;23.30;1.00
1055;DHT22;516;51.482;7.120;2024-03-02T16:32:16;23.40;1.00
1055;DHT22;516;51.482;7.120;2024-03-02T16:34:42;23.30;1.00
1055;DHT22;516;51.482;7.120;2024-03-02T16:37:08;23.40;1.00
1055;DHT22;516;51.482;7.120;2024-03-02T16:39:33;23.30;1.00
1055;DHT22;516;51.482;7.120;2024-03-02T16:41:59;23.10;1.00
1055;DHT22;516;51.482;7.120;2024-03-02T16:44:25;22.90;1.00
1055;DHT22;516;51.482;7.120;2024-03-02T16:46:51;22.80;1.00
1055;DHT22;516;51.482;7.120;2024-03-02T16:49:16;22.70;1.00